sensor_id;sensor_type;location;lat;lon;timestamp;pressure;altitude;pressure_sealevel;temperature;humidity
51287;BME280;37364;46.974;18.916;2023-04-01T00:01:46;152482.00;;;8.47;100.00
51287;BME280;37364;46.974;18.916;2023-04-01T00:04:16;152480.66;;;8.46;100.00
51287;BME280;37364;46.974;18.916;2023-04-01T00:06:50;152479.38;;;8.46;100.00
51287;BME280;37364;46.974;18.916;2023-04-01T00:09:22;152492.34;;;8.51;100.00
51287;BME280;37364;46.974;18.916;2023-04-01T00:11:55;152484.56;;;8.48;100.00
51287;BME280;37364;46.974;18.916;2023-04-01T00:14:26;152485.84;;;8.48;100.00
51287;BME280;37364;46.974;18.916;2023-04-01T00:16:57;152483.28;;;8.47;100.00
51287;BME280;37364;46.974;18.916;2023-04-01T00:19:29;152471.66;;;8.43;100.00
51287;BME280;37364;46.974;18.916;2023-04-01T00:22:07;152475.50;;;8.44;100.00
51287;BME280;37364;46.974;18.916;2023-04-01T00:24:38;152483.28;;;8.47;100.00
51287;BME280;37364;46.974;18.916;2023-04-01T00:27:09;152475.50;;;8.44;100.00
51287;BME280;37364;46.974;18.916;2023-04-01T00:29:41;152472.94;;;8.43;100.00
51287;BME280;37364;46.974;18.916;2023-04-01T00:32:14;152483.28;;;8.47;100.00
51287;BME280;37364;46.974;18.916;2023-04-01T00:34:49;152465.13;;;8.40;100.00
51287;BME280;37364;46.974;18.916;2023-04-01T00:37:26;152461.22;;;8.39;100.00
51287;BME280;37364;46.974;18.916;2023-04-01T00:39:58;152463.84;;;8.40;100.00
51287;BME280;37364;46.974;18.916;2023-04-01T00:42:29;152457.38;;;8.37;100.00
51287;BME280;37364;46.974;18.916;2023-04-01T00:45:26;152458.66;;;8.38;100.00
51287;BME280;37364;46.974;18.916;2023-04-01T00:48:03;152452.22;;;8.35;100.00
51287;BME280;37364;46.974;18.916;2023-04-01T00:50:35;152453.50;;;8.36;100.00
51287;BME280;37364;46.974;18.916;2023-04-01T00:53:11;152435.38;;;8.28;100.00
51287;BME280;37364;46.974;18.916;2023-04-01T00:55:50;152432.81;;;8.27;100.00
51287;BME280;37364;46.974;18.916;2023-04-01T00:58:27;152443.16;;;8.31;100.00
51287;BME280;37364;46.974;18.916;2023-04-01T01:01:01;152430.22;;;8.26;100.00
51287;BME280;37364;46.974;18.916;2023-04-01T01:03:33;152432.81;;;8.27;100.00
51287;BME280;37364;46.974;18.916;2023-04-01T01:09:17;152417.31;;;8.21;100.00
51287;BME280;37364;46.974;18.916;2023-04-01T01:11:55;152410.81;;;8.19;100.00
51287;BME280;37364;46.974;18.916;2023-04-01T01:14:38;152423.75;;;8.24;100.00
51287;BME280;37364;46.974;18.916;2023-04-01T01:17:16;152416.00;;;8.21;100.00
51287;BME280;37364;46.974;18.916;2023-04-01T01:25:58;152409.53;;;8.18;100.00
51287;BME280;37364;46.974;18.916;2023-04-01T01:28:47;152401.75;;;8.15;100.00
51287;BME280;37364;46.974;18.916;2023-04-01T01:31:30;152408.25;;;8.18;100.00
51287;BME280;37364;46.974;18.916;2023-04-01T01:34:15;152388.88;;;8.10;100.00
51287;BME280;37364;46.974;18.916;2023-04-01T01:36:55;152396.59;;;8.13;100.00
51287;BME280;37364;46.974;18.916;2023-04-01T01:39:30;152392.75;;;8.11;100.00
51287;BME280;37364;46.974;18.916;2023-04-01T01:42:07;152395.31;;;8.12;100.00
51287;BME280;37364;46.974;18.916;2023-04-01T01:44:45;152403.09;;;8.16;100.00
51287;BME280;37364;46.974;18.916;2023-04-01T01:47:19;152384.97;;;8.08;100.00
51287;BME280;37364;46.974;18.916;2023-04-01T01:49:51;152392.75;;;8.11;100.00
51287;BME280;37364;46.974;18.916;2023-04-01T01:52:28;152392.75;;;8.11;100.00
51287;BME280;37364;46.974;18.916;2023-04-01T01:54:59;152394.03;;;8.12;100.00
51287;BME280;37364;46.974;18.916;2023-04-01T01:57:43;152391.44;;;8.11;100.00
51287;BME280;37364;46.974;18.916;2023-04-01T02:00:18;152388.88;;;8.10;100.00
51287;BME280;37364;46.974;18.916;2023-04-01T02:02:51;152390.16;;;8.10;100.00
51287;BME280;37364;46.974;18.916;2023-04-01T02:05:24;152396.59;;;8.13;100.00
51287;BME280;37364;46.974;18.916;2023-04-01T02:08:10;152400.47;;;8.15;100.00
51287;BME280;37364;46.974;18.916;2023-04-01T02:10:49;152401.75;;;8.15;100.00
51287;BME280;37364;46.974;18.916;2023-04-01T02:13:30;152401.75;;;8.15;100.00
51287;BME280;37364;46.974;18.916;2023-04-01T02:16:10;152409.53;;;8.18;100.00
51287;BME280;37364;46.974;18.916;2023-04-01T02:18:43;152405.66;;;8.17;100.00
51287;BME280;37364;46.974;18.916;2023-04-01T02:21:20;152404.38;;;8.16;100.00
51287;BME280;37364;46.974;18.916;2023-04-01T02:24:04;152405.66;;;8.17;100.00
51287;BME280;37364;46.974;18.916;2023-04-01T02:26:40;152397.94;;;8.14;100.00
51287;BME280;37364;46.974;18.916;2023-04-01T02:29:12;152405.66;;;8.17;100.00
51287;BME280;37364;46.974;18.916;2023-04-01T02:31:44;152401.75;;;8.15;100.00
51287;BME280;37364;46.974;18.916;2023-04-01T02:34:16;152388.88;;;8.10;100.00
51287;BME280;37364;46.974;18.916;2023-04-01T02:36:48;152388.88;;;8.10;100.00
51287;BME280;37364;46.974;18.916;2023-04-01T02:39:26;152374.66;;;8.04;100.00
51287;BME280;37364;46.974;18.916;2023-04-01T02:41:59;152381.09;;;8.07;100.00
51287;BME280;37364;46.974;18.916;2023-04-01T02:44:31;152364.31;;;8.00;100.00
51287;BME280;37364;46.974;18.916;2023-04-01T02:47:03;152364.31;;;8.00;100.00
51287;BME280;37364;46.974;18.916;2023-04-01T02:49:33;152364.31;;;8.00;100.00
51287;BME280;37364;46.974;18.916;2023-04-01T02:52:04;152360.44;;;7.99;100.00
51287;BME280;37364;46.974;18.916;2023-04-01T02:54:38;152350.09;;;7.95;100.00
51287;BME280;37364;46.974;18.916;2023-04-01T02:57:11;152348.81;;;7.94;100.00
51287;BME280;37364;46.974;18.916;2023-04-01T02:59:42;152353.97;;;7.96;100.00
51287;BME280;37364;46.974;18.916;2023-04-01T03:02:20;152346.22;;;7.93;100.00
51287;BME280;37364;46.974;18.916;2023-04-01T03:04:52;152347.50;;;7.93;100.00
51287;BME280;37364;46.974;18.916;2023-04-01T03:07:23;152348.81;;;7.94;100.00
51287;BME280;37364;46.974;18.916;2023-04-01T03:09:59;152350.09;;;7.95;100.00
51287;BME280;37364;46.974;18.916;2023-04-01T03:12:33;152342.31;;;7.91;100.00
51287;BME280;37364;46.974;18.916;2023-04-01T03:15:05;152353.97;;;7.96;100.00
51287;BME280;37364;46.974;18.916;2023-04-01T03:17:39;152348.81;;;7.94;100.00
51287;BME280;37364;46.974;18.916;2023-04-01T03:20:13;152350.09;;;7.95;100.00
51287;BME280;37364;46.974;18.916;2023-04-01T03:22:43;152357.81;;;7.98;100.00
51287;BME280;37364;46.974;18.916;2023-04-01T03:25:17;152346.22;;;7.93;100.00
51287;BME280;37364;46.974;18.916;2023-04-01T03:27:50;152342.31;;;7.91;100.00
51287;BME280;37364;46.974;18.916;2023-04-01T03:30:23;152339.75;;;7.90;100.00
51287;BME280;37364;46.974;18.916;2023-04-01T03:32:57;152339.75;;;7.90;100.00
51287;BME280;37364;46.974;18.916;2023-04-01T03:35:30;152343.66;;;7.92;100.00
51287;BME280;37364;46.974;18.916;2023-04-01T03:38:03;152337.16;;;7.89;100.00
51287;BME280;37364;46.974;18.916;2023-04-01T03:40:37;152311.31;;;7.79;100.00
51287;BME280;37364;46.974;18.916;2023-04-01T03:43:13;152310.03;;;7.79;100.00
51287;BME280;37364;46.974;18.916;2023-04-01T03:45:46;152303.56;;;7.76;100.00
51287;BME280;37364;46.974;18.916;2023-04-01T03:48:19;152310.03;;;7.79;100.00
51287;BME280;37364;46.974;18.916;2023-04-01T03:50:53;152306.16;;;7.77;100.00
51287;BME280;37364;46.974;18.916;2023-04-01T03:53:25;152295.81;;;7.73;100.00
51287;BME280;37364;46.974;18.916;2023-04-01T03:56:07;152280.31;;;7.67;100.00
51287;BME280;37364;46.974;18.916;2023-04-01T03:58:38;152270.00;;;7.63;100.00
51287;BME280;37364;46.974;18.916;2023-04-01T04:01:14;152288.06;;;7.70;100.00
51287;BME280;37364;46.974;18.916;2023-04-01T04:03:54;152268.66;;;7.62;100.00
51287;BME280;37364;46.974;18.916;2023-04-01T04:06:28;152260.94;;;7.59;100.00
51287;BME280;37364;46.974;18.916;2023-04-01T04:09:01;152246.72;;;7.53;100.00
51287;BME280;37364;46.974;18.916;2023-04-01T04:11:37;152241.56;;;7.51;100.00
51287;BME280;37364;46.974;18.916;2023-04-01T04:14:09;152226.06;;;7.45;100.00
51287;BME280;37364;46.974;18.916;2023-04-01T04:16:41;152214.41;;;7.41;100.00
51287;BME280;37364;46.974;18.916;2023-04-01T04:19:12;152211.84;;;7.40;100.00
51287;BME280;37364;46.974;18.916;2023-04-01T04:21:43;152220.91;;;7.43;100.00
51287;BME280;37364;46.974;18.916;2023-04-01T04:24:14;152195.03;;;7.33;100.00
51287;BME280;37364;46.974;18.916;2023-04-01T04:27:03;152201.53;;;7.36;100.00
51287;BME280;37364;46.974;18.916;2023-04-01T04:29:42;152192.47;;;7.32;100.00
51287;BME280;37364;46.974;18.916;2023-04-01T04:32:13;152188.59;;;7.30;100.00
51287;BME280;37364;46.974;18.916;2023-04-01T04:34:45;152189.88;;;7.31;100.00
51287;BME280;37364;46.974;18.916;2023-04-01T04:37:18;152191.19;;;7.31;100.00
51287;BME280;37364;46.974;18.916;2023-04-01T04:39:48;152195.03;;;7.33;100.00
51287;BME280;37364;46.974;18.916;2023-04-01T04:42:22;152191.19;;;7.31;100.00
51287;BME280;37364;46.974;18.916;2023-04-01T04:44:59;152191.19;;;7.31;100.00
51287;BME280;37364;46.974;18.916;2023-04-01T04:47:32;152184.69;;;7.29;100.00
51287;BME280;37364;46.974;18.916;2023-04-01T04:50:03;152195.03;;;7.33;100.00
51287;BME280;37364;46.974;18.916;2023-04-01T04:52:36;152196.34;;;7.33;100.00
51287;BME280;37364;46.974;18.916;2023-04-01T04:55:07;152187.31;;;7.30;100.00
51287;BME280;37364;46.974;18.916;2023-04-01T04:57:42;152202.81;;;7.36;100.00
51287;BME280;37364;46.974;18.916;2023-04-01T05:00:14;152217.00;;;7.42;100.00
51287;BME280;37364;46.974;18.916;2023-04-01T05:02:51;152220.91;;;7.43;100.00
51287;BME280;37364;46.974;18.916;2023-04-01T05:05:22;152232.50;;;7.48;100.00
51287;BME280;37364;46.974;18.916;2023-04-01T05:07:53;152241.56;;;7.51;100.00
51287;BME280;37364;46.974;18.916;2023-04-01T05:10:24;152248.00;;;7.54;100.00
51287;BME280;37364;46.974;18.916;2023-04-01T05:12:59;152271.28;;;7.63;100.00
51287;BME280;37364;46.974;18.916;2023-04-01T05:15:37;152285.50;;;7.69;100.00
51287;BME280;37364;46.974;18.916;2023-04-01T05:18:08;152306.16;;;7.77;100.00
51287;BME280;37364;46.974;18.916;2023-04-01T05:20:38;152319.09;;;7.82;100.00
51287;BME280;37364;46.974;18.916;2023-04-01T05:23:09;152315.22;;;7.81;100.00
51287;BME280;37364;46.974;18.916;2023-04-01T05:25:39;152348.81;;;7.94;100.00
51287;BME280;37364;46.974;18.916;2023-04-01T05:28:14;152359.16;;;7.98;100.00
51287;BME280;37364;46.974;18.916;2023-04-01T05:30:46;152352.66;;;7.96;100.00
51287;BME280;37364;46.974;18.916;2023-04-01T05:33:23;152377.22;;;8.05;100.00
51287;BME280;37364;46.974;18.916;2023-04-01T05:35:56;152355.25;;;7.97;100.00
51287;BME280;37364;46.974;18.916;2023-04-01T05:38:27;152364.31;;;8.00;100.00
51287;BME280;37364;46.974;18.916;2023-04-01T05:40:59;152361.72;;;7.99;100.00
51287;BME280;37364;46.974;18.916;2023-04-01T05:43:35;152368.22;;;8.02;100.00
51287;BME280;37364;46.974;18.916;2023-04-01T05:46:24;152365.59;;;8.01;100.00
51287;BME280;37364;46.974;18.916;2023-04-01T05:49:02;152375.94;;;8.05;100.00
51287;BME280;37364;46.974;18.916;2023-04-01T05:51:38;152384.97;;;8.08;100.00
51287;BME280;37364;46.974;18.916;2023-04-01T05:54:09;152384.97;;;8.08;100.00
51287;BME280;37364;46.974;18.916;2023-04-01T05:56:39;152404.38;;;8.16;100.00
51287;BME280;37364;46.974;18.916;2023-04-01T05:59:16;152410.81;;;8.19;100.00
51287;BME280;37364;46.974;18.916;2023-04-01T06:01:46;152423.75;;;8.24;100.00
51287;BME280;37364;46.974;18.916;2023-04-01T06:04:20;152441.81;;;8.31;100.00
51287;BME280;37364;46.974;18.916;2023-04-01T06:06:51;152449.59;;;8.34;100.00
51287;BME280;37364;46.974;18.916;2023-04-01T06:09:26;152448.31;;;8.34;100.00
51287;BME280;37364;46.974;18.916;2023-04-01T06:12:14;152469.06;;;8.42;100.00
51287;BME280;37364;46.974;18.916;2023-04-01T06:15:15;152497.50;;;8.53;100.00
51287;BME280;37364;46.974;18.916;2023-04-01T06:18:03;152516.91;;;8.61;100.00
51287;BME280;37364;46.974;18.916;2023-04-01T06:20:44;152528.50;;;8.65;100.00
51287;BME280;37364;46.974;18.916;2023-04-01T06:23:45;152555.69;;;8.76;100.00
51287;BME280;37364;46.974;18.916;2023-04-01T06:26:24;152556.97;;;8.77;100.00
51287;BME280;37364;46.974;18.916;2023-04-01T06:29:19;152573.75;;;8.83;100.00
51287;BME280;37364;46.974;18.916;2023-04-01T06:35:21;152657.81;;;9.17;100.00
51287;BME280;37364;46.974;18.916;2023-04-01T06:38:13;152697.91;;;9.33;100.00
51287;BME280;37364;46.974;18.916;2023-04-01T06:41:01;152701.81;;;9.34;100.00
51287;BME280;37364;46.974;18.916;2023-04-01T06:43:43;152725.09;;;9.43;100.00
51287;BME280;37364;46.974;18.916;2023-04-01T06:46:21;152727.66;;;9.44;100.00
51287;BME280;37364;46.974;18.916;2023-04-01T06:49:31;152748.41;;;9.53;100.00
51287;BME280;37364;46.974;18.916;2023-04-01T06:52:31;152784.63;;;9.67;100.00
51287;BME280;37364;46.974;18.916;2023-04-01T06:55:28;152796.25;;;9.72;100.00
51287;BME280;37364;46.974;18.916;2023-04-01T06:58:37;152815.66;;;9.79;100.00
51287;BME280;37364;46.974;18.916;2023-04-01T07:01:12;152824.72;;;9.83;100.00
51287;BME280;37364;46.974;18.916;2023-04-01T07:03:49;152827.28;;;9.84;100.00
51287;BME280;37364;46.974;18.916;2023-04-01T07:06:25;152838.97;;;9.88;100.00
51287;BME280;37364;46.974;18.916;2023-04-01T07:09:06;152867.44;;;10.00;100.00
51287;BME280;37364;46.974;18.916;2023-04-01T07:12:02;152879.09;;;10.04;100.00
51287;BME280;37364;46.974;18.916;2023-04-01T07:15:03;152917.91;;;10.20;100.00
51287;BME280;37364;46.974;18.916;2023-04-01T07:17:36;152919.19;;;10.20;100.00
51287;BME280;37364;46.974;18.916;2023-04-01T07:20:16;152932.16;;;10.25;100.00
51287;BME280;37364;46.974;18.916;2023-04-01T07:22:49;152927.00;;;10.23;100.00
51287;BME280;37364;46.974;18.916;2023-04-01T07:25:31;152956.81;;;10.35;100.00
51287;BME280;37364;46.974;18.916;2023-04-01T07:28:38;152949.03;;;10.32;100.00
51287;BME280;37364;46.974;18.916;2023-04-01T07:31:49;152971.06;;;10.41;100.00
51287;BME280;37364;46.974;18.916;2023-04-01T07:34:26;152978.78;;;10.44;100.00
51287;BME280;37364;46.974;18.916;2023-04-01T08:15:16;153134.22;;;11.05;100.00
51287;BME280;37364;46.974;18.916;2023-04-01T08:18:49;153123.81;;;11.01;100.00
51287;BME280;37364;46.974;18.916;2023-04-01T08:26:22;153236.50;;;11.46;100.00
51287;BME280;37364;46.974;18.916;2023-04-01T08:34:17;153263.75;;;11.57;100.00
51287;BME280;37364;46.974;18.916;2023-04-01T08:46:26;153354.47;;;11.93;100.00
51287;BME280;37364;46.974;18.916;2023-04-01T09:01:14;153383.00;;;12.04;100.00
51287;BME280;37364;46.974;18.916;2023-04-01T09:04:12;153373.91;;;12.00;100.00
51287;BME280;37364;46.974;18.916;2023-04-01T09:06:57;153405.00;;;12.13;100.00
51287;BME280;37364;46.974;18.916;2023-04-01T09:09:55;153489.28;;;12.46;100.00
51287;BME280;37364;46.974;18.916;2023-04-01T09:12:37;153447.81;;;12.30;100.00
51287;BME280;37364;46.974;18.916;2023-04-01T09:15:25;153428.34;;;12.22;100.00
51287;BME280;37364;46.974;18.916;2023-04-01T09:18:21;153485.38;;;12.44;100.00
51287;BME280;37364;46.974;18.916;2023-04-01T09:21:10;153473.72;;;12.40;100.00
51287;BME280;37364;46.974;18.916;2023-04-01T09:24:07;153484.09;;;12.44;100.00
51287;BME280;37364;46.974;18.916;2023-04-01T09:26:53;153467.25;;;12.37;100.00
51287;BME280;37364;46.974;18.916;2023-04-01T09:35:49;153484.09;;;12.44;100.00
51287;BME280;37364;46.974;18.916;2023-04-01T09:38:22;153463.34;;;12.36;100.00
51287;BME280;37364;46.974;18.916;2023-04-01T09:40:56;153481.50;;;12.43;100.00
51287;BME280;37364;46.974;18.916;2023-04-01T09:43:59;153468.53;;;12.38;100.00
51287;BME280;37364;46.974;18.916;2023-04-01T09:46:54;153556.72;;;12.73;100.00
51287;BME280;37364;46.974;18.916;2023-04-01T09:52:40;153548.91;;;12.70;100.00
51287;BME280;37364;46.974;18.916;2023-04-01T09:58:52;153476.34;;;12.41;100.00
51287;BME280;37364;46.974;18.916;2023-04-01T10:02:29;153606.00;;;12.92;100.00
51287;BME280;37364;46.974;18.916;2023-04-01T10:11:49;153577.44;;;12.81;100.00
51287;BME280;37364;46.974;18.916;2023-04-01T10:20:52;153708.47;;;13.33;100.00
51287;BME280;37364;46.974;18.916;2023-04-01T10:26:46;153657.84;;;13.13;100.00
51287;BME280;37364;46.974;18.916;2023-04-01T10:33:24;153772.03;;;13.58;100.00
51287;BME280;37364;46.974;18.916;2023-04-01T10:39:35;153794.13;;;13.67;100.00
51287;BME280;37364;46.974;18.916;2023-04-01T10:48:51;153848.63;;;13.88;100.00
51287;BME280;37364;46.974;18.916;2023-04-01T10:55:19;153735.75;;;13.43;100.00
51287;BME280;37364;46.974;18.916;2023-04-01T10:58:39;153813.59;;;13.74;100.00
51287;BME280;37364;46.974;18.916;2023-04-01T11:02:06;153848.63;;;13.88;100.00
51287;BME280;37364;46.974;18.916;2023-04-01T11:18:31;153628.00;;;13.01;100.00
51287;BME280;37364;46.974;18.916;2023-04-01T11:27:42;153735.75;;;13.43;100.00
51287;BME280;37364;46.974;18.916;2023-04-01T11:30:56;153775.94;;;13.59;100.00
51287;BME280;37364;46.974;18.916;2023-04-01T11:33:36;153810.97;;;13.73;100.00
51287;BME280;37364;46.974;18.916;2023-04-01T11:36:18;153808.41;;;13.72;100.00
51287;BME280;37364;46.974;18.916;2023-04-01T11:39:03;153769.47;;;13.57;100.00
51287;BME280;37364;46.974;18.916;2023-04-01T11:42:19;153782.41;;;13.62;100.00
51287;BME280;37364;46.974;18.916;2023-04-01T11:45:20;153783.75;;;13.62;100.00
51287;BME280;37364;46.974;18.916;2023-04-01T11:48:07;153799.31;;;13.69;100.00
51287;BME280;37364;46.974;18.916;2023-04-01T11:50:57;153879.75;;;14.00;100.00
51287;BME280;37364;46.974;18.916;2023-04-01T11:53:39;153859.00;;;13.92;100.00
51287;BME280;37364;46.974;18.916;2023-04-01T11:56:24;153864.19;;;13.94;100.00
51287;BME280;37364;46.974;18.916;2023-04-01T12:02:20;153805.78;;;13.71;100.00
51287;BME280;37364;46.974;18.916;2023-04-01T12:05:07;153838.25;;;13.84;100.00
51287;BME280;37364;46.974;18.916;2023-04-01T12:07:53;153835.63;;;13.83;99.00
51287;BME280;37364;46.974;18.916;2023-04-01T12:10:28;153790.22;;;13.65;100.00
51287;BME280;37364;46.974;18.916;2023-04-01T12:13:10;153813.59;;;13.74;100.00
51287;BME280;37364;46.974;18.916;2023-04-01T12:15:56;153820.06;;;13.77;100.00
51287;BME280;37364;46.974;18.916;2023-04-01T12:18:34;153830.44;;;13.81;100.00
51287;BME280;37364;46.974;18.916;2023-04-01T12:21:16;153808.41;;;13.72;100.00
51287;BME280;37364;46.974;18.916;2023-04-01T12:24:06;153792.78;;;13.66;100.00
51287;BME280;37364;46.974;18.916;2023-04-01T12:26:55;153901.81;;;14.09;100.00
51287;BME280;37364;46.974;18.916;2023-04-01T12:32:41;154044.66;;;14.66;100.00
51287;BME280;37364;46.974;18.916;2023-04-01T12:35:20;154033.00;;;14.61;100.00
51287;BME280;37364;46.974;18.916;2023-04-01T12:38:15;153916.09;;;14.15;100.00
51287;BME280;37364;46.974;18.916;2023-04-01T12:41:05;153923.91;;;14.18;100.00
51287;BME280;37364;46.974;18.916;2023-04-01T12:44:00;153965.41;;;14.34;100.00
51287;BME280;37364;46.974;18.916;2023-04-01T12:46:47;153961.50;;;14.33;100.00
51287;BME280;37364;46.974;18.916;2023-04-01T12:52:34;153966.75;;;14.35;100.00
51287;BME280;37364;46.974;18.916;2023-04-01T12:55:35;153927.78;;;14.19;100.00
51287;BME280;37364;46.974;18.916;2023-04-01T12:58:49;153835.63;;;13.83;100.00
51287;BME280;37364;46.974;18.916;2023-04-01T13:01:50;153839.53;;;13.84;100.00
51287;BME280;37364;46.974;18.916;2023-04-01T13:07:32;153843.44;;;13.86;100.00
51287;BME280;37364;46.974;18.916;2023-04-01T13:10:17;153917.41;;;14.15;100.00
51287;BME280;37364;46.974;18.916;2023-04-01T13:13:08;153878.47;;;14.00;100.00
51287;BME280;37364;46.974;18.916;2023-04-01T13:15:50;153901.81;;;14.09;98.90
51287;BME280;37364;46.974;18.916;2023-04-01T13:18:29;153966.75;;;14.35;99.12
51287;BME280;37364;46.974;18.916;2023-04-01T13:21:12;153992.69;;;14.45;94.42
51287;BME280;37364;46.974;18.916;2023-04-01T13:23:54;153926.47;;;14.19;96.93
51287;BME280;37364;46.974;18.916;2023-04-01T13:26:31;153960.22;;;14.32;95.67
51287;BME280;37364;46.974;18.916;2023-04-01T13:29:07;153997.88;;;14.47;94.64
51287;BME280;37364;46.974;18.916;2023-04-01T13:31:55;153966.75;;;14.35;94.88
51287;BME280;37364;46.974;18.916;2023-04-01T13:34:39;154009.56;;;14.52;93.27
51287;BME280;37364;46.974;18.916;2023-04-01T13:37:25;154056.38;;;14.70;90.14
51287;BME280;37364;46.974;18.916;2023-04-01T13:40:23;154083.63;;;14.81;91.42
51287;BME280;37364;46.974;18.916;2023-04-01T13:42:59;154136.88;;;15.02;93.05
51287;BME280;37364;46.974;18.916;2023-04-01T13:45:41;154164.13;;;15.13;90.50
51287;BME280;37364;46.974;18.916;2023-04-01T13:51:43;154143.34;;;15.05;91.39
51287;BME280;37364;46.974;18.916;2023-04-01T13:54:43;154218.66;;;15.34;92.24
51287;BME280;37364;46.974;18.916;2023-04-01T13:57:27;154112.19;;;14.92;88.49
51287;BME280;37364;46.974;18.916;2023-04-01T14:00:21;154127.78;;;14.98;91.59
51287;BME280;37364;46.974;18.916;2023-04-01T14:06:06;154092.72;;;14.85;87.51
51287;BME280;37364;46.974;18.916;2023-04-01T14:08:51;154021.31;;;14.56;90.23
51287;BME280;37364;46.974;18.916;2023-04-01T14:11:31;154019.94;;;14.56;91.86
51287;BME280;37364;46.974;18.916;2023-04-01T14:14:16;154030.38;;;14.60;91.93
51287;BME280;37364;46.974;18.916;2023-04-01T14:16:58;153996.59;;;14.47;91.70
51287;BME280;37364;46.974;18.916;2023-04-01T14:20:06;154005.66;;;14.50;93.01
51287;BME280;37364;46.974;18.916;2023-04-01T14:22:54;153964.13;;;14.34;91.76
51287;BME280;37364;46.974;18.916;2023-04-01T14:28:26;153930.38;;;14.20;93.36
51287;BME280;37364;46.974;18.916;2023-04-01T14:31:21;153968.03;;;14.35;96.22
51287;BME280;37364;46.974;18.916;2023-04-01T14:34:05;154034.28;;;14.61;92.81
51287;BME280;37364;46.974;18.916;2023-04-01T14:36:57;154065.41;;;14.74;92.23
51287;BME280;37364;46.974;18.916;2023-04-01T14:39:57;154000.47;;;14.48;88.28
51287;BME280;37364;46.974;18.916;2023-04-01T14:42:49;154021.31;;;14.56;86.30
51287;BME280;37364;46.974;18.916;2023-04-01T14:45:45;153993.97;;;14.46;84.70
51287;BME280;37364;46.974;18.916;2023-04-01T14:48:25;153918.72;;;14.16;84.63
51287;BME280;37364;46.974;18.916;2023-04-01T14:51:08;153878.47;;;14.00;90.06
51287;BME280;37364;46.974;18.916;2023-04-01T14:53:43;153865.47;;;13.95;90.64
51287;BME280;37364;46.974;18.916;2023-04-01T14:56:35;153827.88;;;13.80;92.34
51287;BME280;37364;46.974;18.916;2023-04-01T14:59:09;153849.91;;;13.89;91.27
51287;BME280;37364;46.974;18.916;2023-04-01T15:01:45;153920.00;;;14.16;95.20
51287;BME280;37364;46.974;18.916;2023-04-01T15:04:41;153920.00;;;14.16;92.06
51287;BME280;37364;46.974;18.916;2023-04-01T15:07:39;153905.72;;;14.11;94.71
51287;BME280;37364;46.974;18.916;2023-04-01T15:10:27;153888.84;;;14.04;94.45
51287;BME280;37364;46.974;18.916;2023-04-01T15:13:07;153909.59;;;14.12;95.79
51287;BME280;37364;46.974;18.916;2023-04-01T15:15:56;153927.78;;;14.19;96.22
51287;BME280;37364;46.974;18.916;2023-04-01T15:18:37;153929.09;;;14.20;96.53
51287;BME280;37364;46.974;18.916;2023-04-01T15:21:19;153951.13;;;14.29;93.74
51287;BME280;37364;46.974;18.916;2023-04-01T15:23:58;153936.91;;;14.23;94.11
51287;BME280;37364;46.974;18.916;2023-04-01T15:26:57;153900.50;;;14.09;93.36
51287;BME280;37364;46.974;18.916;2023-04-01T15:29:51;153878.47;;;14.00;95.48
51287;BME280;37364;46.974;18.916;2023-04-01T15:32:38;153890.13;;;14.04;98.19
51287;BME280;37364;46.974;18.916;2023-04-01T15:35:21;153890.13;;;14.04;99.58
51287;BME280;37364;46.974;18.916;2023-04-01T15:38:04;153875.84;;;13.99;99.39
51287;BME280;37364;46.974;18.916;2023-04-01T15:40:43;153862.91;;;13.94;99.90
51287;BME280;37364;46.974;18.916;2023-04-01T15:43:24;153814.88;;;13.75;100.00
51287;BME280;37364;46.974;18.916;2023-04-01T15:46:15;153816.16;;;13.75;100.00
51287;BME280;37364;46.974;18.916;2023-04-01T15:48:58;153823.97;;;13.78;98.94
51287;BME280;37364;46.974;18.916;2023-04-01T15:51:44;153818.78;;;13.76;100.00
51287;BME280;37364;46.974;18.916;2023-04-01T15:54:30;153836.91;;;13.83;99.47
51287;BME280;37364;46.974;18.916;2023-04-01T15:57:12;153818.78;;;13.76;98.72
51287;BME280;37364;46.974;18.916;2023-04-01T16:00:05;153826.53;;;13.79;100.00
51287;BME280;37364;46.974;18.916;2023-04-01T16:02:46;153844.72;;;13.87;99.62
51287;BME280;37364;46.974;18.916;2023-04-01T16:05:41;153834.34;;;13.82;100.00
51287;BME280;37364;46.974;18.916;2023-04-01T16:11:20;153844.72;;;13.87;100.00
51287;BME280;37364;46.974;18.916;2023-04-01T16:14:02;153852.47;;;13.90;99.90
51287;BME280;37364;46.974;18.916;2023-04-01T16:16:48;153842.09;;;13.85;100.00
51287;BME280;37364;46.974;18.916;2023-04-01T16:19:33;153826.53;;;13.79;100.00
51287;BME280;37364;46.974;18.916;2023-04-01T16:22:08;153822.63;;;13.78;100.00
51287;BME280;37364;46.974;18.916;2023-04-01T16:24:46;153813.59;;;13.74;100.00
51287;BME280;37364;46.974;18.916;2023-04-01T16:27:27;153813.59;;;13.74;100.00
51287;BME280;37364;46.974;18.916;2023-04-01T16:30:03;153821.34;;;13.77;100.00
51287;BME280;37364;46.974;18.916;2023-04-01T16:32:51;153805.78;;;13.71;100.00
51287;BME280;37364;46.974;18.916;2023-04-01T16:35:33;153795.41;;;13.67;100.00
51287;BME280;37364;46.974;18.916;2023-04-01T16:38:13;153779.84;;;13.61;100.00
51287;BME280;37364;46.974;18.916;2023-04-01T16:40:50;153756.47;;;13.52;100.00
51287;BME280;37364;46.974;18.916;2023-04-01T16:43:28;153730.53;;;13.41;100.00
51287;BME280;37364;46.974;18.916;2023-04-01T16:49:30;153712.38;;;13.34;100.00